createdAt,value
2023-05-10T00:00:02.721Z,91827.06
2023-05-10T00:02:50.812Z,91824.78
2023-05-10T00:05:37.103Z,91818.00
2023-05-10T00:08:22.895Z,91822.13
2023-05-10T00:11:08.744Z,91821.78
2023-05-10T00:13:54.665Z,91821.03
2023-05-10T00:16:40.546Z,91821.38
2023-05-10T00:19:26.485Z,91817.22
2023-05-10T00:22:12.388Z,91825.50
2023-05-10T00:24:58.199Z,91824.78
2023-05-10T00:27:44.190Z,91822.16
2023-05-10T00:30:29.957Z,91815.34
2023-05-10T00:33:15.763Z,91818.00
2023-05-10T00:36:01.615Z,91805.19
2023-05-10T00:38:47.661Z,91822.13
2023-05-10T00:41:33.519Z,91816.50
2023-05-10T00:44:19.189Z,91824.03
2023-05-10T00:47:05.075Z,91813.09
2023-05-10T00:49:50.822Z,91813.88
2023-05-10T00:52:36.632Z,91821.41
2023-05-10T00:55:22.616Z,91815.00
2023-05-10T00:58:08.563Z,91827.06
2023-05-10T01:00:54.499Z,91824.06
2023-05-10T01:03:40.613Z,91816.50
2023-05-10T01:06:26.611Z,91816.88
2023-05-10T01:09:12.475Z,91810.84
2023-05-10T01:11:58.236Z,91810.81
2023-05-10T01:14:44.143Z,91815.34
2023-05-10T01:17:30.018Z,91811.56
2023-05-10T01:20:16.232Z,91808.22
2023-05-10T01:23:02.280Z,91815.75
2023-05-10T01:25:48.172Z,91811.22
2023-05-10T01:28:33.996Z,91806.69
2023-05-10T01:31:20.039Z,91810.09
2023-05-10T01:34:05.846Z,91801.78
2023-05-10T01:36:51.606Z,91804.81
2023-05-10T01:39:37.449Z,91807.44
2023-05-10T01:42:23.190Z,91813.09
2023-05-10T01:45:09.076Z,91818.03
2023-05-10T01:47:55.014Z,91833.47
2023-05-10T01:50:40.823Z,91825.91
2023-05-10T01:53:26.682Z,91827.75
2023-05-10T01:56:12.584Z,91829.31
2023-05-10T01:58:58.538Z,91819.91
2023-05-10T02:01:44.536Z,91824.78
2023-05-10T02:04:30.331Z,91834.59
2023-05-10T02:07:16.237Z,91824.81
2023-05-10T02:10:01.945Z,91828.94
2023-05-10T02:12:47.809Z,91843.25
2023-05-10T02:15:33.802Z,91834.97
2023-05-10T02:18:19.648Z,91834.59
2023-05-10T02:21:05.475Z,91828.19
2023-05-10T02:23:51.250Z,91827.78
2023-05-10T02:26:37.164Z,91825.94
2023-05-10T02:29:23.080Z,91830.09
2023-05-10T02:32:08.957Z,91829.69
2023-05-10T02:34:55.206Z,91821.03
2023-05-10T02:37:41.169Z,91823.28
2023-05-10T02:40:29.069Z,91830.44
2023-05-10T02:43:14.847Z,91830.81
2023-05-10T02:46:00.845Z,91830.81
2023-05-10T02:48:46.854Z,91831.19
2023-05-10T02:51:32.702Z,91843.25
2023-05-10T02:54:20.614Z,91840.63
2023-05-10T02:57:06.400Z,91841.38
2023-05-10T02:59:52.267Z,91843.13
2023-05-10T03:02:38.124Z,91841.72
2023-05-10T03:05:23.989Z,91854.41
2023-05-10T03:08:09.887Z,91847.75
2023-05-10T03:10:55.727Z,91849.25
2023-05-10T03:13:41.756Z,91853.72
2023-05-10T03:16:27.878Z,91841.38
2023-05-10T03:19:14.228Z,91844.03
2023-05-10T03:22:00.228Z,91847.91
2023-05-10T03:24:45.886Z,91841.47
2023-05-10T03:27:31.752Z,91843.41
2023-05-10T03:30:17.815Z,91848.59
2023-05-10T03:33:03.742Z,91849.25
2023-05-10T03:35:49.633Z,91857.81
2023-05-10T03:38:35.447Z,91851.72
2023-05-10T03:41:21.253Z,91850.34
2023-05-10T03:44:07.168Z,91855.06
2023-05-10T03:46:53.115Z,91861.53
2023-05-10T03:49:41.280Z,91859.63
2023-05-10T03:52:27.181Z,91862.06
2023-05-10T03:55:13.026Z,91853.91
2023-05-10T03:57:58.962Z,91855.41
2023-05-10T04:00:45.006Z,91851.94
2023-05-10T04:03:30.934Z,91853.00
2023-05-10T04:06:17.076Z,91853.00
2023-05-10T04:09:02.953Z,91844.41
2023-05-10T04:11:48.764Z,91855.88
2023-05-10T04:14:34.643Z,91847.34
2023-05-10T04:17:20.452Z,91846.31
2023-05-10T04:20:06.406Z,91855.69
2023-05-10T04:22:52.427Z,91856.81
2023-05-10T04:25:38.112Z,91853.56
2023-05-10T04:28:23.909Z,91864.19
2023-05-10T04:31:09.775Z,91855.81
2023-05-10T04:33:55.708Z,91854.94
2023-05-10T04:36:41.621Z,91852.47
2023-05-10T04:39:27.485Z,91854.75
2023-05-10T04:42:13.417Z,91862.06
2023-05-10T04:44:59.289Z,91859.38
2023-05-10T04:47:45.227Z,91861.63
2023-05-10T04:50:31.557Z,91858.81
2023-05-10T04:53:17.322Z,91864.94
2023-05-10T04:56:03.285Z,91862.34
2023-05-10T04:58:49.224Z,91871.44
2023-05-10T05:01:35.136Z,91864.72
2023-05-10T05:04:21.049Z,91866.38
2023-05-10T05:07:06.945Z,91868.56
2023-05-10T05:09:52.719Z,91878.19
2023-05-10T05:12:38.556Z,91876.50
2023-05-10T05:15:24.350Z,91878.19
2023-05-10T05:18:10.214Z,91869.97
2023-05-10T05:20:56.104Z,91875.22
2023-05-10T05:23:41.871Z,91873.38
2023-05-10T05:26:27.817Z,91880.16
2023-05-10T05:29:13.655Z,91881.72
2023-05-10T05:31:59.419Z,91890.38
2023-05-10T05:34:45.376Z,91897.91
2023-05-10T05:37:31.249Z,91889.25
2023-05-10T05:40:17.063Z,91892.63
2023-05-10T05:43:02.829Z,91901.38
2023-05-10T05:45:48.546Z,91906.63
2023-05-10T05:48:34.469Z,91900.59
2023-05-10T05:51:22.186Z,91900.97
2023-05-10T05:54:08.094Z,91911.75
2023-05-10T05:56:53.971Z,91902.34
2023-05-10T05:59:39.627Z,91901.91
2023-05-10T06:02:25.545Z,91903.09
2023-05-10T06:05:11.641Z,91900.81
2023-05-10T06:07:57.539Z,91899.38
2023-05-10T06:10:43.427Z,91890.78
2023-05-10T06:13:29.479Z,91889.63
2023-05-10T06:16:15.743Z,91888.50
2023-05-10T06:19:01.686Z,91895.69
2023-05-10T06:21:47.405Z,91902.84
2023-05-10T06:24:33.195Z,91893.03
2023-05-10T06:27:18.966Z,91891.50
2023-05-10T06:30:12.970Z,91894.97
2023-05-10T06:32:59.899Z,91900.25
2023-05-10T06:35:45.913Z,91898.75
2023-05-10T06:38:31.816Z,91895.69
2023-05-10T06:41:17.555Z,91903.41
2023-05-10T06:44:03.420Z,91897.44
2023-05-10T06:46:49.360Z,91900.13
2023-05-10T06:49:35.562Z,91908.38
2023-05-10T06:52:21.414Z,91907.31
2023-05-10T06:55:07.254Z,91903.91
2023-05-10T06:57:53.180Z,91910.72
2023-05-10T07:00:39.167Z,91907.75
2023-05-10T07:03:25.018Z,91905.44
2023-05-10T07:06:21.787Z,91906.22
2023-05-10T07:09:15.897Z,91907.03
2023-05-10T07:12:01.852Z,91906.25
2023-05-10T07:14:48.117Z,91909.28
2023-05-10T07:17:36.065Z,91901.34
2023-05-10T07:20:21.847Z,91916.38
2023-05-10T07:23:07.694Z,91914.56
2023-05-10T07:25:53.396Z,91908.13
2023-05-10T07:28:39.310Z,91911.56
2023-05-10T07:31:27.212Z,91909.31
2023-05-10T07:34:13.506Z,91919.84
2023-05-10T07:36:59.205Z,91919.09
2023-05-10T07:39:45.029Z,91921.72
2023-05-10T07:42:30.908Z,91921.75
2023-05-10T07:45:16.994Z,91928.53
2023-05-10T07:48:03.252Z,91923.25
2023-05-10T07:50:49.147Z,91936.59
2023-05-10T07:53:35.003Z,91942.69
2023-05-10T07:56:20.742Z,91951.19
2023-05-10T07:59:06.644Z,91950.47
2023-05-10T08:01:52.492Z,91952.94
2023-05-10T08:04:38.364Z,91953.84
2023-05-10T08:07:26.698Z,91941.00
2023-05-10T08:10:12.592Z,91952.13
2023-05-10T08:12:58.286Z,91954.34
2023-05-10T08:15:44.108Z,91950.97
2023-05-10T08:18:29.997Z,91951.81
2023-05-10T08:21:16.041Z,91954.53
2023-05-10T08:24:02.190Z,91941.03
2023-05-10T08:26:48.069Z,91948.47
2023-05-10T08:29:46.184Z,91949.00
2023-05-10T08:32:36.002Z,91951.81
2023-05-10T08:35:21.778Z,91949.56
2023-05-10T08:38:07.500Z,91950.75
2023-05-10T08:40:53.374Z,91950.50
2023-05-10T08:43:39.336Z,91937.16
2023-05-10T08:46:25.381Z,91948.13
2023-05-10T08:49:11.151Z,91950.81
2023-05-10T08:51:57.187Z,91954.91
2023-05-10T08:54:43.087Z,91960.41
2023-05-10T08:57:28.926Z,91948.50
2023-05-10T09:00:14.852Z,91954.59
2023-05-10T09:03:00.588Z,91957.22
2023-05-10T09:05:46.422Z,91958.81
2023-05-10T09:08:32.426Z,91951.19
2023-05-10T09:11:18.053Z,91956.03
2023-05-10T09:14:03.918Z,91946.84
2023-05-10T09:16:49.835Z,91949.09
2023-05-10T09:19:35.640Z,91949.69
2023-05-10T09:22:21.410Z,91946.78
2023-05-10T09:25:07.167Z,91951.91
2023-05-10T09:27:53.017Z,91954.88
2023-05-10T09:30:39.002Z,91952.50
2023-05-10T09:33:24.830Z,91949.63
2023-05-10T09:36:10.855Z,91951.94
2023-05-10T09:38:56.789Z,91954.63
2023-05-10T09:41:42.709Z,91951.31
2023-05-10T09:44:28.682Z,91954.50
2023-05-10T09:47:14.429Z,91949.00
2023-05-10T09:50:00.414Z,91948.47
2023-05-10T09:52:46.201Z,91955.22
2023-05-10T09:55:32.045Z,91947.13
2023-05-10T09:58:17.900Z,91952.84
2023-05-10T10:01:03.806Z,91953.09
2023-05-10T10:03:49.792Z,91956.78
2023-05-10T10:06:35.659Z,91951.50
2023-05-10T10:09:21.451Z,91956.38
2023-05-10T10:12:07.285Z,91948.78
2023-05-10T10:14:53.119Z,91936.81
2023-05-10T10:17:39.060Z,91943.16
2023-05-10T10:20:25.077Z,91941.34
2023-05-10T10:23:10.946Z,91945.91
2023-05-10T10:25:56.901Z,91939.09
2023-05-10T10:28:42.811Z,91931.56
2023-05-10T10:31:28.702Z,91929.66
2023-05-10T10:34:14.638Z,91935.31
2023-05-10T10:37:00.559Z,91929.66
2023-05-10T10:39:46.626Z,91930.41
2023-05-10T10:42:32.557Z,91926.59
2023-05-10T10:45:18.785Z,91929.91
2023-05-10T10:48:04.816Z,91930.94
2023-05-10T10:50:50.805Z,91928.91
2023-05-10T10:53:36.601Z,91929.19
2023-05-10T10:56:22.446Z,91927.44
2023-05-10T10:59:08.218Z,91924.56
2023-05-10T11:01:54.074Z,91931.97
2023-05-10T11:04:40.115Z,91929.38
2023-05-10T11:07:26.444Z,91931.94
2023-05-10T11:10:12.359Z,91934.28
2023-05-10T11:12:58.424Z,91926.34
2023-05-10T11:15:44.562Z,91917.34
2023-05-10T11:18:30.505Z,91931.88
2023-05-10T11:21:16.424Z,91921.56
2023-05-10T11:24:02.342Z,91925.63
2023-05-10T11:26:48.281Z,91927.81
2023-05-10T11:29:34.084Z,91922.94
2023-05-10T11:32:19.966Z,91926.22
2023-05-10T11:35:05.755Z,91925.31
2023-05-10T11:37:51.605Z,91927.41
2023-05-10T11:40:37.567Z,91922.97
2023-05-10T11:43:23.484Z,91921.78
2023-05-10T11:46:09.312Z,91929.91
2023-05-10T11:48:55.281Z,91915.81
2023-05-10T11:51:41.181Z,91920.97
2023-05-10T11:54:27.128Z,91917.44
2023-05-10T11:57:12.885Z,91920.84
2023-05-10T11:59:58.887Z,91922.69
2023-05-10T12:02:44.814Z,91923.81
2023-05-10T12:05:30.890Z,91943.25
2023-05-10T12:08:16.807Z,91951.53
2023-05-10T12:11:02.565Z,91946.94
2023-05-10T12:13:48.357Z,91947.66
2023-05-10T12:16:34.245Z,91950.97
2023-05-10T12:19:20.237Z,91952.00
2023-05-10T12:22:06.068Z,91951.03
2023-05-10T12:24:52.104Z,91942.84
2023-05-10T12:27:37.882Z,91940.81
2023-05-10T12:30:23.808Z,91942.06
2023-05-10T12:33:09.772Z,91947.94
2023-05-10T12:35:55.610Z,91942.03
2023-05-10T12:38:41.589Z,91946.94
2023-05-10T12:41:27.389Z,91943.63
2023-05-10T12:44:13.348Z,91933.06
2023-05-10T12:46:59.241Z,91933.44
2023-05-10T12:49:45.110Z,91928.56
2023-05-10T12:52:31.055Z,91936.84
2023-05-10T12:55:16.874Z,91922.91
2023-05-10T12:58:02.802Z,91935.88
2023-05-10T13:00:48.793Z,91943.28
2023-05-10T13:03:34.597Z,91942.53
2023-05-10T13:06:20.560Z,91944.41
2023-05-10T13:09:06.528Z,91947.03
2023-05-10T13:11:52.414Z,91950.00
2023-05-10T13:14:38.372Z,91940.97
2023-05-10T13:17:24.222Z,91943.66
2023-05-10T13:20:10.236Z,91944.38
2023-05-10T13:22:56.434Z,91940.63
2023-05-10T13:25:42.193Z,91947.75
2023-05-10T13:28:28.102Z,91942.13
2023-05-10T13:31:13.877Z,91940.78
2023-05-10T13:33:59.761Z,91939.34
2023-05-10T13:36:45.635Z,91948.13
2023-05-10T13:39:31.530Z,91941.66
2023-05-10T13:42:17.349Z,91949.63
2023-05-10T13:45:03.213Z,91951.16
2023-05-10T13:47:49.042Z,91944.63
2023-05-10T13:50:34.943Z,91945.13
2023-05-10T13:53:20.881Z,91946.28
2023-05-10T13:56:06.743Z,91933.44
2023-05-10T13:58:52.822Z,91941.00
2023-05-10T14:01:38.716Z,91951.94
2023-05-10T14:04:24.593Z,91954.56
2023-05-10T14:07:10.435Z,91956.97
2023-05-10T14:09:56.255Z,91955.66
2023-05-10T14:12:42.238Z,91953.06
2023-05-10T14:15:27.919Z,91952.91
2023-05-10T14:18:13.799Z,91958.22
2023-05-10T14:21:01.794Z,91969.53
2023-05-10T14:23:47.556Z,91957.44
2023-05-10T14:26:33.419Z,91955.84
2023-05-10T14:29:19.178Z,91962.03
2023-05-10T14:32:05.025Z,91950.41
2023-05-10T14:34:51.346Z,91951.56
2023-05-10T14:37:37.230Z,91945.16
2023-05-10T14:40:23.074Z,91942.88
2023-05-10T14:43:08.994Z,91946.56
2023-05-10T14:45:54.815Z,91957.84
2023-05-10T14:48:40.824Z,91950.50
2023-05-10T14:51:26.619Z,91938.72
2023-05-10T14:54:12.369Z,91941.00
2023-05-10T14:56:58.392Z,91937.16
2023-05-10T14:59:44.104Z,91937.59
2023-05-10T15:02:30.715Z,91940.59
2023-05-10T15:05:17.416Z,91943.25
2023-05-10T15:08:04.173Z,91947.03
2023-05-10T15:10:52.109Z,91951.13
2023-05-10T15:13:38.066Z,91948.44
2023-05-10T15:16:23.786Z,91941.00
2023-05-10T15:19:10.223Z,91946.25
2023-05-10T15:21:56.480Z,91948.88
2023-05-10T15:24:42.383Z,91947.03
2023-05-10T15:27:28.122Z,91952.69
2023-05-10T15:30:13.983Z,91946.66
2023-05-10T15:32:59.939Z,91945.09
2023-05-10T15:35:45.955Z,91947.72
2023-05-10T15:38:31.725Z,91946.53
2023-05-10T15:41:17.734Z,91949.31
2023-05-10T15:44:03.613Z,91951.53
2023-05-10T15:46:49.494Z,91953.34
2023-05-10T15:49:35.352Z,91957.50
2023-05-10T15:52:21.235Z,91961.97
2023-05-10T15:55:07.070Z,91967.69
2023-05-10T15:57:53.049Z,91961.16
2023-05-10T16:00:38.896Z,91955.28
2023-05-10T16:03:24.810Z,91956.81
2023-05-10T16:06:11.030Z,91964.69
2023-05-10T16:08:56.978Z,91967.41
2023-05-10T16:11:42.678Z,91964.03
2023-05-10T16:14:28.500Z,91963.28
2023-05-10T16:17:14.344Z,91969.25
2023-05-10T16:20:00.643Z,91969.63
2023-05-10T16:22:46.596Z,91969.63
2023-05-10T16:25:32.411Z,91973.06
2023-05-10T16:28:18.271Z,91986.34
2023-05-10T16:31:04.273Z,91986.00
2023-05-10T16:33:50.288Z,91988.41
2023-05-10T16:36:36.057Z,91997.84
2023-05-10T16:39:21.971Z,91997.75
2023-05-10T16:42:07.794Z,91993.25
2023-05-10T16:44:53.628Z,91994.56
2023-05-10T16:47:39.662Z,91996.66
2023-05-10T16:50:25.422Z,91997.03
2023-05-10T16:53:11.423Z,91982.38
2023-05-10T16:55:57.494Z,91991.47
2023-05-10T16:58:43.293Z,91979.06
2023-05-10T17:01:29.274Z,91977.78
2023-05-10T17:04:15.304Z,91985.41
2023-05-10T17:07:01.445Z,91984.69
2023-05-10T17:09:47.293Z,91987.84
2023-05-10T17:12:33.092Z,91986.09
2023-05-10T17:15:19.384Z,91983.00
2023-05-10T17:18:05.999Z,91986.16
2023-05-10T17:20:51.966Z,91988.59
2023-05-10T17:23:37.824Z,91992.25
2023-05-10T17:26:23.696Z,91984.47
2023-05-10T17:29:09.506Z,91983.91
2023-05-10T17:31:55.420Z,91970.31
2023-05-10T17:34:41.298Z,91968.16
2023-05-10T17:37:27.219Z,91970.47
2023-05-10T17:40:13.222Z,91975.34
2023-05-10T17:42:59.052Z,91972.69
2023-05-10T17:45:44.969Z,91968.72
2023-05-10T17:48:30.799Z,91970.88
2023-05-10T17:51:16.682Z,91964.06
2023-05-10T17:54:02.615Z,91969.19
2023-05-10T17:56:48.478Z,91963.06
2023-05-10T17:59:34.304Z,91958.19
2023-05-10T18:02:20.395Z,91962.63
2023-05-10T18:05:06.382Z,91971.63
2023-05-10T18:07:52.513Z,91971.75
2023-05-10T18:10:40.653Z,91975.47
2023-05-10T18:13:27.450Z,91977.63
2023-05-10T18:16:13.412Z,91977.56
2023-05-10T18:18:59.600Z,91981.94
2023-05-10T18:21:45.540Z,91982.56
2023-05-10T18:27:20.461Z,91985.91
2023-05-10T18:30:06.323Z,91988.25
2023-05-10T18:32:52.332Z,91987.34
2023-05-10T18:35:38.297Z,91983.81
2023-05-10T18:38:24.106Z,91982.59
2023-05-10T18:41:09.979Z,91990.28
2023-05-10T18:43:55.759Z,91986.75
2023-05-10T18:46:41.644Z,91986.47
2023-05-10T18:49:27.647Z,91991.03
2023-05-10T18:52:13.523Z,91986.19
2023-05-10T18:54:59.388Z,91987.34
2023-05-10T18:57:45.181Z,91987.63
2023-05-10T19:00:31.107Z,91997.63
2023-05-10T19:03:17.098Z,91995.28
2023-05-10T19:06:02.956Z,91991.91
2023-05-10T19:08:48.988Z,92000.94
2023-05-10T19:11:34.895Z,92006.69
2023-05-10T19:14:20.766Z,92003.75
2023-05-10T19:17:07.706Z,92000.56
2023-05-10T19:19:54.455Z,91998.88
2023-05-10T19:22:54.057Z,91995.16
2023-05-10T19:25:44.712Z,92000.22
2023-05-10T19:28:30.646Z,92001.22
2023-05-10T19:31:16.752Z,92007.00
2023-05-10T19:34:03.647Z,92004.34
2023-05-10T19:36:50.188Z,92005.81
2023-05-10T19:39:36.016Z,92004.03
2023-05-10T19:42:21.909Z,92002.47
2023-05-10T19:45:07.761Z,91997.63
2023-05-10T19:47:53.884Z,92002.91
2023-05-10T19:50:39.883Z,91999.13
2023-05-10T19:53:25.658Z,92001.78
2023-05-10T19:56:11.554Z,91996.84
2023-05-10T19:58:57.451Z,91993.81
2023-05-10T20:01:43.308Z,92012.72
2023-05-10T20:04:29.210Z,92016.09
2023-05-10T20:07:14.956Z,92019.94
2023-05-10T20:10:00.946Z,92022.00
2023-05-10T20:12:46.831Z,92023.38
2023-05-10T20:15:32.528Z,92020.91
2023-05-10T20:18:18.432Z,92025.91
2023-05-10T20:21:04.363Z,92025.34
2023-05-10T20:23:50.463Z,92020.59
2023-05-10T20:26:36.398Z,92024.66
2023-05-10T20:29:22.227Z,92026.03
2023-05-10T20:32:08.113Z,92021.56
2023-05-10T20:34:53.974Z,92021.75
2023-05-10T20:37:39.807Z,92020.75
2023-05-10T20:40:25.728Z,92025.38
2023-05-10T20:43:11.647Z,92019.75
2023-05-10T20:45:57.539Z,92018.44
2023-05-10T20:48:43.378Z,92019.81
2023-05-10T20:51:29.169Z,92024.09
2023-05-10T20:54:15.143Z,92021.47
2023-05-10T20:57:00.865Z,92016.41
2023-05-10T20:59:46.750Z,92023.63
2023-05-10T21:02:32.751Z,92016.94
2023-05-10T21:05:18.764Z,92023.66
2023-05-10T21:08:04.998Z,92019.50
2023-05-10T21:10:51.010Z,92018.59
2023-05-10T21:13:36.894Z,92024.47
2023-05-10T21:16:22.832Z,92023.16
2023-05-10T21:19:08.772Z,92020.34
2023-05-10T21:21:54.810Z,92016.31
2023-05-10T21:24:40.696Z,92010.66
2023-05-10T21:27:26.443Z,92012.06
2023-05-10T21:30:12.336Z,92003.50
2023-05-10T21:32:58.401Z,92006.59
2023-05-10T21:35:44.414Z,91994.94
2023-05-10T21:38:30.485Z,91997.59
2023-05-10T21:41:16.268Z,91999.13
2023-05-10T21:44:02.193Z,91996.47
2023-05-10T21:46:48.175Z,91994.59
2023-05-10T21:49:33.903Z,91997.25
2023-05-10T21:52:19.728Z,91992.34
2023-05-10T21:55:05.628Z,91994.25
2023-05-10T21:57:51.471Z,91995.75
2023-05-10T22:00:37.442Z,91997.25
2023-05-10T22:03:23.369Z,91998.38
2023-05-10T22:06:09.671Z,91997.25
2023-05-10T22:08:55.587Z,92000.22
2023-05-10T22:11:41.341Z,91992.69
2023-05-10T22:14:27.238Z,91991.59
2023-05-10T22:17:13.166Z,91993.09
2023-05-10T22:19:59.077Z,91995.75
2023-05-10T22:22:45.028Z,91995.00
2023-05-10T22:25:30.861Z,91988.22
2023-05-10T22:28:16.670Z,91991.97
2023-05-10T22:31:02.678Z,91986.69
2023-05-10T22:33:48.649Z,91995.38
2023-05-10T22:36:34.473Z,91996.13
2023-05-10T22:39:20.270Z,91993.13
2023-05-10T22:42:06.365Z,91994.97
2023-05-10T22:44:52.298Z,91995.00
2023-05-10T22:47:38.117Z,91995.38
2023-05-10T22:50:25.107Z,91993.09
2023-05-10T22:53:11.628Z,91992.00
2023-05-10T22:55:57.318Z,91990.47
2023-05-10T22:58:43.258Z,91995.66
2023-05-10T23:01:29.175Z,91989.13
2023-05-10T23:04:15.152Z,91991.16
2023-05-10T23:07:01.189Z,91988.09
2023-05-10T23:09:47.031Z,91986.59
2023-05-10T23:12:32.983Z,91982.13
2023-05-10T23:15:18.919Z,91988.16
2023-05-10T23:18:04.702Z,91987.81
2023-05-10T23:20:50.917Z,91990.81
2023-05-10T23:23:36.798Z,91984.06
2023-05-10T23:26:22.730Z,91987.47
2023-05-10T23:29:08.625Z,91981.78
2023-05-10T23:31:54.559Z,91981.38
2023-05-10T23:34:40.393Z,91981.38
2023-05-10T23:37:26.218Z,91982.53
2023-05-10T23:40:12.050Z,91973.44
2023-05-10T23:42:57.957Z,91963.63
2023-05-10T23:45:43.928Z,91969.63
2023-05-10T23:48:29.719Z,91968.09
2023-05-10T23:51:15.484Z,91971.09
2023-05-10T23:54:01.316Z,91966.16
2023-05-10T23:56:47.310Z,91967.63
2023-05-10T23:59:33.088Z,91960.03
